Time;durP1;ratioP1;P1;durP2;ratioP2;P2;SDS_P1;SDS_P2;PMS_P1;PMS_P2;Temp;Humidity;BMP_temperature;BMP_pressure;BME280_temperature;BME280_humidity;BME280_pressure;Samples;Min_cycle;Max_cycle;Signal;HPM_P1;HPM_P2
2021/01/09 00:00:58;;;;;;;;;;;2.80;95.00;;;;;;4954482;28;19922;-89
2021/01/09 00:03:23;;;;;;;;;;;2.80;95.00;;;;;;4966423;28;19922;-89
2021/01/09 00:05:52;;;;;;;;;;;2.80;95.00;;;;;;4953718;28;20361;-89
2021/01/09 00:08:18;;;;;;;;;;;2.80;95.00;;;;;;4954296;28;19911;-89
2021/01/09 00:10:44;;;;;;;;;;;2.80;95.00;;;;;;4970218;28;19917;-88
2021/01/09 00:13:09;;;;;;;;;;;2.80;95.00;;;;;;4952496;28;19926;-86
2021/01/09 00:15:35;;;;;;;;;;;2.70;94.90;;;;;;4955774;28;19930;-88
2021/01/09 00:18:01;;;;;;;;;;;2.70;94.90;;;;;;4953296;28;20021;-89
2021/01/09 00:20:26;;;;;;;;;;;2.70;94.90;;;;;;4965886;28;19969;-89
2021/01/09 00:22:52;;;;;;;;;;;2.70;94.90;;;;;;4954549;28;19918;-89
2021/01/09 00:25:18;;;;;;;;;;;2.70;94.90;;;;;;4953057;28;19925;-90
2021/01/09 00:27:44;;;;;;;;;;;2.70;94.90;;;;;;4955578;28;19926;-90
2021/01/09 00:30:10;;;;;;;;;;;2.70;94.90;;;;;;4965817;28;19946;-90
2021/01/09 00:32:35;;;;;;;;;;;2.70;94.90;;;;;;4975639;28;20011;-89
2021/01/09 00:35:01;;;;;;;;;;;2.70;94.90;;;;;;4975820;28;19918;-89
2021/01/09 00:37:27;;;;;;;;;;;2.70;94.90;;;;;;4975864;28;19914;-90
2021/01/09 00:39:53;;;;;;;;;;;2.70;94.90;;;;;;4974438;28;20387;-89
2021/01/09 00:42:19;;;;;;;;;;;2.70;94.90;;;;;;4969502;28;19914;-89
2021/01/09 00:44:45;;;;;;;;;;;2.70;94.90;;;;;;4969071;28;19918;-89
2021/01/09 00:47:10;;;;;;;;;;;2.70;94.90;;;;;;4975645;28;20008;-90
2021/01/09 00:49:36;;;;;;;;;;;2.70;94.90;;;;;;4976064;28;19918;-89
2021/01/09 00:52:01;;;;;;;;;;;2.70;94.90;;;;;;4976550;28;20040;-89
2021/01/09 00:54:27;;;;;;;;;;;2.70;94.80;;;;;;4957379;29;20361;-89
2021/01/09 00:56:53;;;;;;;;;;;2.70;95.00;;;;;;4972174;28;19915;-89
2021/01/09 00:59:19;;;;;;;;;;;2.60;94.70;;;;;;4970098;28;19910;-90
2021/01/09 01:01:45;;;;;;;;;;;2.60;94.70;;;;;;4991388;28;19945;-90
2021/01/09 01:04:10;;;;;;;;;;;2.60;94.70;;;;;;4998022;28;19925;-89
2021/01/09 01:06:36;;;;;;;;;;;2.60;94.70;;;;;;5001365;28;19945;-90
2021/01/09 01:09:01;;;;;;;;;;;2.60;94.70;;;;;;4997762;28;19914;-90
2021/01/09 01:11:28;;;;;;;;;;;2.50;94.70;;;;;;4985168;28;19918;-89
2021/01/09 01:13:53;;;;;;;;;;;2.50;94.70;;;;;;4998575;28;20163;-89
2021/01/09 01:16:19;;;;;;;;;;;2.50;94.70;;;;;;4985777;28;19921;-89
2021/01/09 01:18:45;;;;;;;;;;;2.50;94.70;;;;;;4962787;28;20288;-90
2021/01/09 01:21:10;;;;;;;;;;;2.50;94.70;;;;;;4971743;28;19922;-89
2021/01/09 01:23:36;;;;;;;;;;;2.40;94.70;;;;;;4970644;28;19918;-91
2021/01/09 01:26:02;;;;;;;;;;;2.50;94.70;;;;;;4961663;28;19914;-90
2021/01/09 01:28:27;;;;;;;;;;;2.40;94.70;;;;;;4977476;28;19916;-89
2021/01/09 01:30:53;;;;;;;;;;;2.40;94.60;;;;;;4980992;28;20009;-90
2021/01/09 01:33:18;;;;;;;;;;;2.40;94.60;;;;;;4977743;28;19929;-89
2021/01/09 01:35:44;;;;;;;;;;;2.40;94.60;;;;;;4977920;28;19914;-89
2021/01/09 01:38:09;;;;;;;;;;;2.40;94.60;;;;;;4977014;28;19914;-90
2021/01/09 01:40:35;;;;;;;;;;;2.30;94.60;;;;;;4976920;28;19949;-89
2021/01/09 01:43:00;;;;;;;;;;;2.30;94.60;;;;;;4961156;28;20394;-88
2021/01/09 01:45:26;;;;;;;;;;;2.30;94.50;;;;;;4977332;28;19921;-90
2021/01/09 01:47:51;;;;;;;;;;;2.30;94.50;;;;;;4959862;28;20027;-90
2021/01/09 01:50:17;;;;;;;;;;;2.30;94.50;;;;;;4964921;28;20367;-86
2021/01/09 01:52:43;;;;;;;;;;;2.20;94.50;;;;;;4994567;28;20388;-90
2021/01/09 01:55:09;;;;;;;;;;;2.20;94.50;;;;;;4977049;28;19918;-89
2021/01/09 01:57:35;;;;;;;;;;;2.20;94.50;;;;;;4960894;28;19921;-89
2021/01/09 02:00:01;;;;;;;;;;;2.20;94.50;;;;;;4977111;28;20040;-88
2021/01/09 02:02:26;;;;;;;;;;;2.20;94.50;;;;;;4976938;28;20009;-88
2021/01/09 02:04:55;;;;;;;;;;;2.10;94.50;;;;;;4977122;28;20338;-89
2021/01/09 02:07:23;;;;;;;;;;;2.10;94.50;;;;;;4976775;28;19910;-87
2021/01/09 02:09:49;;;;;;;;;;;2.10;94.40;;;;;;4976809;28;19967;-88
2021/01/09 02:12:25;;;;;;;;;;;2.00;94.70;;;;;;4963135;28;19922;-89
2021/01/09 02:14:52;;;;;;;;;;;2.00;94.40;;;;;;4977110;28;20047;-88
2021/01/09 02:17:18;;;;;;;;;;;2.00;94.30;;;;;;4976680;28;19909;-89
2021/01/09 02:19:44;;;;;;;;;;;1.90;94.30;;;;;;4976769;28;19917;-89
2021/01/09 02:22:16;;;;;;;;;;;1.90;94.40;;;;;;4960899;28;20312;-87
2021/01/09 02:24:43;;;;;;;;;;;1.90;94.70;;;;;;4966124;28;19910;-90
2021/01/09 02:27:09;;;;;;;;;;;1.90;94.40;;;;;;4957379;28;19922;-89
2021/01/09 02:29:36;;;;;;;;;;;1.90;94.40;;;;;;4976781;28;19913;-89
2021/01/09 02:32:08;;;;;;;;;;;1.90;94.40;;;;;;4976522;28;19917;-88
2021/01/09 02:34:38;;;;;;;;;;;1.90;94.40;;;;;;4993724;28;19917;-88
2021/01/09 02:37:04;;;;;;;;;;;1.90;94.40;;;;;;4993829;28;19985;-88
2021/01/09 02:39:31;;;;;;;;;;;2.00;94.40;;;;;;4976828;28;19988;-88
2021/01/09 02:41:56;;;;;;;;;;;1.90;94.40;;;;;;4976262;28;19937;-88
2021/01/09 02:44:22;;;;;;;;;;;1.90;94.40;;;;;;4976789;28;20015;-87
2021/01/09 02:46:47;;;;;;;;;;;1.90;94.40;;;;;;4960361;28;20296;-89
2021/01/09 02:49:13;;;;;;;;;;;1.90;94.40;;;;;;4959892;28;20288;-89
2021/01/09 02:51:38;;;;;;;;;;;1.90;94.40;;;;;;4959780;28;19917;-88
2021/01/09 02:54:04;;;;;;;;;;;1.90;94.40;;;;;;4959973;28;20315;-88
2021/01/09 02:56:29;;;;;;;;;;;1.90;94.40;;;;;;4959677;28;19928;-88
2021/01/09 02:58:55;;;;;;;;;;;1.90;94.40;;;;;;4976851;28;19914;-89
2021/01/09 03:01:24;;;;;;;;;;;1.80;94.20;;;;;;4976131;28;20644;-87
2021/01/09 03:03:50;;;;;;;;;;;1.80;94.20;;;;;;4994088;28;19918;-89
2021/01/09 03:06:15;;;;;;;;;;;1.70;94.10;;;;;;4993419;28;19956;-87
2021/01/09 03:08:41;;;;;;;;;;;1.60;94.00;;;;;;4971664;28;19917;-87
2021/01/09 03:11:06;;;;;;;;;;;1.60;94.10;;;;;;4967495;28;20277;-88
2021/01/09 03:13:32;;;;;;;;;;;1.60;94.20;;;;;;4991087;28;19922;-88
2021/01/09 03:15:59;;;;;;;;;;;1.70;94.30;;;;;;4960439;28;19922;-89
2021/01/09 03:18:25;;;;;;;;;;;1.60;94.30;;;;;;4962929;28;19918;-89
2021/01/09 03:20:50;;;;;;;;;;;1.60;94.30;;;;;;4960265;28;19925;-88
2021/01/09 03:23:16;;;;;;;;;;;1.70;94.30;;;;;;4960302;28;20100;-89
2021/01/09 03:25:41;;;;;;;;;;;1.70;94.30;;;;;;4975912;28;20315;-89
2021/01/09 03:28:07;;;;;;;;;;;1.70;94.30;;;;;;4993613;28;19914;-89
2021/01/09 03:30:32;;;;;;;;;;;1.70;94.30;;;;;;4975892;28;19910;-89
2021/01/09 03:32:58;;;;;;;;;;;1.70;94.30;;;;;;4993786;28;19984;-89
2021/01/09 03:35:26;;;;;;;;;;;1.70;94.30;;;;;;4961992;28;19910;-89
2021/01/09 03:37:54;;;;;;;;;;;1.70;94.30;;;;;;4963514;28;19918;-89
2021/01/09 03:40:20;;;;;;;;;;;1.70;94.30;;;;;;4993018;28;19953;-89
2021/01/09 03:42:45;;;;;;;;;;;1.70;94.30;;;;;;4992488;28;20403;-89
2021/01/09 03:45:11;;;;;;;;;;;1.70;94.20;;;;;;4959787;28;20418;-88
2021/01/09 03:47:37;;;;;;;;;;;1.70;94.20;;;;;;4975175;28;19910;-88
2021/01/09 03:50:04;;;;;;;;;;;1.70;94.20;;;;;;4978733;28;20012;-88
2021/01/09 03:52:29;;;;;;;;;;;1.70;94.20;;;;;;4975284;28;19993;-89
2021/01/09 03:54:55;;;;;;;;;;;1.70;94.20;;;;;;4958655;28;19945;-88
2021/01/09 03:57:20;;;;;;;;;;;1.70;94.20;;;;;;4958113;28;19917;-88
2021/01/09 03:59:46;;;;;;;;;;;1.70;94.20;;;;;;4944541;28;20434;-89
2021/01/09 04:02:11;;;;;;;;;;;1.70;94.20;;;;;;4977261;28;19930;-88
2021/01/09 04:04:37;;;;;;;;;;;1.70;94.20;;;;;;4978810;28;19943;-88
2021/01/09 04:07:02;;;;;;;;;;;1.70;94.30;;;;;;4963491;28;20067;-87
2021/01/09 04:09:28;;;;;;;;;;;1.70;94.30;;;;;;4979797;28;19968;-88
2021/01/09 04:11:53;;;;;;;;;;;1.70;94.30;;;;;;4979667;28;20048;-88
2021/01/09 04:14:18;;;;;;;;;;;1.70;94.30;;;;;;4963305;28;19921;-89
2021/01/09 04:16:44;;;;;;;;;;;1.70;94.20;;;;;;4963465;28;20430;-89
2021/01/09 04:19:10;;;;;;;;;;;1.70;94.20;;;;;;4980197;28;19917;-88
2021/01/09 04:21:57;;;;;;;;;;;1.70;94.50;;;;;;4975009;28;19997;-89
2021/01/09 04:24:23;;;;;;;;;;;1.70;94.20;;;;;;4959290;28;19965;-87
2021/01/09 04:26:53;;;;;;;;;;;1.70;94.20;;;;;;4979763;28;19965;-87
2021/01/09 04:29:18;;;;;;;;;;;1.70;94.20;;;;;;4996790;28;19953;-87
2021/01/09 04:31:43;;;;;;;;;;;1.70;94.20;;;;;;4979811;28;20352;-88
2021/01/09 04:34:09;;;;;;;;;;;1.70;94.20;;;;;;4980101;28;19968;-88
2021/01/09 04:36:35;;;;;;;;;;;1.70;94.20;;;;;;4980046;28;19918;-87
2021/01/09 04:39:00;;;;;;;;;;;1.60;94.20;;;;;;4980492;28;20287;-88
2021/01/09 04:41:26;;;;;;;;;;;1.70;94.20;;;;;;4997858;28;19918;-88
2021/01/09 04:43:51;;;;;;;;;;;1.60;94.20;;;;;;4982541;28;19987;-88
2021/01/09 04:46:17;;;;;;;;;;;1.60;94.20;;;;;;4992355;28;19968;-88
2021/01/09 04:48:43;;;;;;;;;;;1.60;94.10;;;;;;4983440;28;19925;-87
2021/01/09 04:51:09;;;;;;;;;;;1.60;94.10;;;;;;4993258;28;19907;-88
2021/01/09 04:53:35;;;;;;;;;;;1.60;94.10;;;;;;4986035;28;19914;-88
2021/01/09 04:56:01;;;;;;;;;;;1.60;94.10;;;;;;4985094;28;19902;-88
2021/01/09 04:58:26;;;;;;;;;;;1.60;94.10;;;;;;4984596;28;20014;-88
2021/01/09 05:00:54;;;;;;;;;;;1.60;94.10;;;;;;4983420;28;19945;-88
2021/01/09 05:03:23;;;;;;;;;;;1.60;94.10;;;;;;4988747;28;19918;-89
2021/01/09 05:05:49;;;;;;;;;;;1.60;94.10;;;;;;4977797;28;19960;-89
2021/01/09 05:08:15;;;;;;;;;;;1.60;94.10;;;;;;4976588;28;19910;-89
2021/01/09 05:10:40;;;;;;;;;;;1.60;94.20;;;;;;4978626;28;19914;-88
2021/01/09 05:13:06;;;;;;;;;;;1.60;94.20;;;;;;4977104;28;19975;-88
2021/01/09 05:15:32;;;;;;;;;;;1.60;94.10;;;;;;4959750;28;19937;-88
2021/01/09 05:17:58;;;;;;;;;;;1.60;94.10;;;;;;4982602;28;19921;-87
2021/01/09 05:20:24;;;;;;;;;;;1.60;94.10;;;;;;4978905;28;19918;-88
2021/01/09 05:22:49;;;;;;;;;;;1.60;94.00;;;;;;4985172;28;19918;-87
2021/01/09 05:25:15;;;;;;;;;;;1.60;94.00;;;;;;4943290;28;19921;-88
2021/01/09 05:27:44;;;;;;;;;;;1.50;94.00;;;;;;4968236;28;20379;-89
2021/01/09 05:30:10;;;;;;;;;;;1.50;94.00;;;;;;4977859;28;19909;-88
2021/01/09 05:32:36;;;;;;;;;;;1.50;93.90;;;;;;4978387;28;20001;-89
2021/01/09 05:35:01;;;;;;;;;;;1.50;93.90;;;;;;4978885;28;19980;-89
2021/01/09 05:37:27;;;;;;;;;;;1.50;94.00;;;;;;4962090;28;20335;-89
2021/01/09 05:39:53;;;;;;;;;;;1.50;94.00;;;;;;4984754;28;19910;-89
2021/01/09 05:42:20;;;;;;;;;;;1.50;94.00;;;;;;4975687;28;19941;-88
2021/01/09 05:44:46;;;;;;;;;;;1.50;94.00;;;;;;4978314;28;19910;-89
2021/01/09 05:47:11;;;;;;;;;;;1.50;94.00;;;;;;4978062;28;19913;-88
2021/01/09 05:49:40;;;;;;;;;;;1.50;93.90;;;;;;4955101;28;19937;-88
2021/01/09 05:52:05;;;;;;;;;;;1.40;93.90;;;;;;4978340;28;19910;-89
2021/01/09 05:54:34;;;;;;;;;;;1.50;94.00;;;;;;4964715;28;19914;-89
2021/01/09 05:57:00;;;;;;;;;;;1.40;94.00;;;;;;4995602;28;19949;-89
2021/01/09 05:59:26;;;;;;;;;;;1.50;94.00;;;;;;4977554;28;19941;-88
2021/01/09 06:01:54;;;;;;;;;;;1.40;94.00;;;;;;4986101;28;20012;-88
2021/01/09 06:04:24;;;;;;;;;;;1.40;94.00;;;;;;4960199;28;19915;-88
2021/01/09 06:06:56;;;;;;;;;;;1.40;94.00;;;;;;4977726;28;19910;-88
2021/01/09 06:09:27;;;;;;;;;;;1.40;94.00;;;;;;4963937;28;19973;-88
2021/01/09 06:11:56;;;;;;;;;;;1.50;94.00;;;;;;4994724;28;19936;-88
2021/01/09 06:14:25;;;;;;;;;;;1.40;94.00;;;;;;4958263;28;19914;-88
2021/01/09 06:16:51;;;;;;;;;;;1.40;94.00;;;;;;4964868;28;19914;-89
2021/01/09 06:19:19;;;;;;;;;;;1.40;94.00;;;;;;4977059;28;19913;-89
2021/01/09 06:21:45;;;;;;;;;;;1.40;94.00;;;;;;4972160;28;19929;-89
2021/01/09 06:24:10;;;;;;;;;;;1.40;93.90;;;;;;4968466;28;19913;-90
2021/01/09 06:26:36;;;;;;;;;;;1.40;93.90;;;;;;4957808;28;19914;-89
2021/01/09 06:29:18;;;;;;;;;;;1.40;93.90;;;;;;4967054;28;20310;-87
2021/01/09 06:31:50;;;;;;;;;;;1.40;94.00;;;;;;4973695;28;19921;-88
2021/01/09 06:34:17;;;;;;;;;;;1.40;94.00;;;;;;4967084;28;19910;-88
2021/01/09 06:36:43;;;;;;;;;;;1.40;94.00;;;;;;4975093;28;19917;-89
2021/01/09 06:39:09;;;;;;;;;;;1.40;94.00;;;;;;4949465;28;19925;-89
2021/01/09 06:41:36;;;;;;;;;;;1.40;94.00;;;;;;4958197;28;20472;-89
2021/01/09 06:44:05;;;;;;;;;;;1.40;94.00;;;;;;4985015;28;19965;-89
2021/01/09 06:46:31;;;;;;;;;;;1.40;94.00;;;;;;4972018;28;19988;-88
2021/01/09 06:48:57;;;;;;;;;;;1.40;94.00;;;;;;4971871;28;20388;-89
2021/01/09 06:51:32;;;;;;;;;;;1.40;94.00;;;;;;4959056;28;19921;-89
2021/01/09 06:54:16;;;;;;;;;;;1.40;94.10;;;;;;4960143;28;19965;-89
2021/01/09 06:56:45;;;;;;;;;;;1.40;94.10;;;;;;4976582;28;19968;-89
2021/01/09 06:59:31;;;;;;;;;;;1.40;94.10;;;;;;4964201;28;19920;-88
2021/01/09 07:02:14;;;;;;;;;;;1.40;94.10;;;;;;4991542;28;19913;-89
2021/01/09 07:04:50;;;;;;;;;;;1.40;94.00;;;;;;4976289;28;20364;-89
2021/01/09 07:07:28;;;;;;;;;;;1.40;94.00;;;;;;4976395;28;19917;-88
2021/01/09 07:10:04;;;;;;;;;;;1.40;94.00;;;;;;4989037;28;19909;-86
2021/01/09 07:12:30;;;;;;;;;;;1.40;93.90;;;;;;4975110;28;20000;-89
2021/01/09 07:20:00;;;;;;;;;;;1.30;93.90;;;;;;5013526;28;20328;-83
2021/01/09 07:22:26;;;;;;;;;;;1.40;93.90;;;;;;4997756;28;20421;-83
2021/01/09 07:24:52;;;;;;;;;;;1.30;93.90;;;;;;4990381;28;19909;-83
2021/01/09 07:27:20;;;;;;;;;;;1.30;93.90;;;;;;5002739;28;19910;-83
2021/01/09 07:29:46;;;;;;;;;;;1.40;93.90;;;;;;5007508;28;19910;-83
2021/01/09 07:32:12;;;;;;;;;;;1.40;93.90;;;;;;4975545;28;20335;-83
2021/01/09 07:34:41;;;;;;;;;;;1.40;93.90;;;;;;4974446;28;20436;-83
2021/01/09 07:37:07;;;;;;;;;;;1.40;93.90;;;;;;4988042;28;19916;-83
2021/01/09 07:39:53;;;;;;;;;;;1.40;93.90;;;;;;4984092;28;19913;-83
2021/01/09 07:42:24;;;;;;;;;;;1.40;93.90;;;;;;4999944;28;19913;-82
2021/01/09 07:45:06;;;;;;;;;;;1.40;94.00;;;;;;4997389;28;19916;-82
2021/01/09 07:47:36;;;;;;;;;;;1.40;94.00;;;;;;4990966;28;19913;-82
2021/01/09 07:50:01;;;;;;;;;;;1.40;94.00;;;;;;5002922;28;19921;-82
2021/01/09 07:52:31;;;;;;;;;;;1.50;94.00;;;;;;4983803;28;19968;-83
2021/01/09 07:54:57;;;;;;;;;;;1.50;94.00;;;;;;5000104;28;19914;-82
2021/01/09 07:57:25;;;;;;;;;;;1.50;94.00;;;;;;4984243;28;19913;-84
2021/01/09 07:59:53;;;;;;;;;;;1.50;94.00;;;;;;5000362;28;19916;-84
2021/01/09 08:02:48;;;;;;;;;;;1.50;94.00;;;;;;5017792;28;19921;-84
2021/01/09 08:05:13;;;;;;;;;;;1.50;94.00;;;;;;4985067;28;19917;-84
2021/01/09 08:07:47;;;;;;;;;;;1.50;94.20;;;;;;5000130;28;19909;-84
2021/01/09 08:10:12;;;;;;;;;;;1.50;94.00;;;;;;4995271;28;19917;-85
2021/01/09 08:12:38;;;;;;;;;;;1.50;94.00;;;;;;4993033;28;19921;-84
2021/01/09 08:15:04;;;;;;;;;;;1.50;94.00;;;;;;4983471;28;19924;-83
2021/01/09 08:17:31;;;;;;;;;;;1.50;94.00;;;;;;4983972;28;19914;-84
2021/01/09 08:20:03;;;;;;;;;;;1.50;94.00;;;;;;5007669;28;20012;-84
2021/01/09 08:22:29;;;;;;;;;;;1.60;94.00;;;;;;4987221;28;19914;-84
2021/01/09 08:25:05;;;;;;;;;;;1.60;94.00;;;;;;4989131;28;19910;-83
2021/01/09 08:27:31;;;;;;;;;;;1.60;94.00;;;;;;4997434;28;19956;-84
2021/01/09 08:29:57;;;;;;;;;;;1.60;94.00;;;;;;4974393;28;19918;-84
2021/01/09 08:32:26;;;;;;;;;;;1.60;94.00;;;;;;4978629;28;19928;-83
2021/01/09 08:34:53;;;;;;;;;;;1.60;94.00;;;;;;4984005;28;20391;-85
2021/01/09 08:37:19;;;;;;;;;;;1.60;94.00;;;;;;4987262;28;19969;-84
2021/01/09 08:39:44;;;;;;;;;;;1.60;94.00;;;;;;4969189;28;19948;-85
2021/01/09 08:42:14;;;;;;;;;;;1.60;94.00;;;;;;4982453;28;19940;-84
2021/01/09 08:44:47;;;;;;;;;;;1.60;94.00;;;;;;4965280;28;19914;-86
2021/01/09 08:47:17;;;;;;;;;;;1.60;94.00;;;;;;4989287;28;19910;-87
2021/01/09 08:49:45;;;;;;;;;;;1.70;94.10;;;;;;4996105;28;19913;-86
2021/01/09 08:52:11;;;;;;;;;;;1.70;94.10;;;;;;4988179;28;19935;-85
2021/01/09 08:54:38;;;;;;;;;;;1.70;94.10;;;;;;4969144;28;19917;-86
2021/01/09 08:57:05;;;;;;;;;;;1.70;94.10;;;;;;4999611;28;19914;-85
2021/01/09 08:59:31;;;;;;;;;;;1.80;94.20;;;;;;4999737;28;20002;-86
2021/01/09 09:02:06;;;;;;;;;;;1.80;94.20;;;;;;4985826;28;19922;-86
2021/01/09 09:04:33;;;;;;;;;;;1.80;94.20;;;;;;4987410;28;19914;-85
2021/01/09 09:07:48;;;;;;;;;;;1.80;94.20;;;;;;4966140;28;19914;-86
2021/01/09 09:09:59;;;;;;;;;;;1.80;94.20;;;;;;5004578;28;20402;-85
2021/01/09 09:12:31;;;;;;;;;;;1.80;94.30;;;;;;4998104;28;19960;-86
2021/01/09 09:15:04;;;;;;;;;;;1.90;94.30;;;;;;4998118;28;19917;-87
2021/01/09 09:17:30;;;;;;;;;;;1.90;94.30;;;;;;4987907;28;19910;-85
2021/01/09 09:19:57;;;;;;;;;;;1.90;94.30;;;;;;4974218;28;19933;-82
2021/01/09 09:22:29;;;;;;;;;;;2.00;94.40;;;;;;4992245;28;19914;-84
2021/01/09 09:24:55;;;;;;;;;;;2.00;94.40;;;;;;5000683;28;19909;-84
2021/01/09 09:27:27;;;;;;;;;;;2.00;94.40;;;;;;4985512;28;19965;-85
2021/01/09 09:30:04;;;;;;;;;;;2.10;94.40;;;;;;4999294;28;19917;-84
2021/01/09 09:32:30;;;;;;;;;;;2.10;94.40;;;;;;4985365;28;19918;-85
2021/01/09 09:34:56;;;;;;;;;;;2.10;94.40;;;;;;4991700;28;19920;-86
2021/01/09 09:37:34;;;;;;;;;;;2.10;94.40;;;;;;4999153;28;19910;-84
2021/01/09 09:40:00;;;;;;;;;;;2.10;94.40;;;;;;4999102;28;19909;-84
2021/01/09 09:42:32;;;;;;;;;;;2.10;94.40;;;;;;4982364;28;19914;-83
2021/01/09 09:45:09;;;;;;;;;;;2.10;94.40;;;;;;4994982;28;19914;-84
2021/01/09 09:47:35;;;;;;;;;;;2.10;94.40;;;;;;4992208;28;19914;-84
2021/01/09 09:50:01;;;;;;;;;;;2.20;94.40;;;;;;4998245;28;19910;-84
2021/01/09 09:52:26;;;;;;;;;;;2.20;94.40;;;;;;4987208;28;20291;-85
2021/01/09 09:55:02;;;;;;;;;;;2.20;94.40;;;;;;4995352;28;19910;-85
2021/01/09 09:57:28;;;;;;;;;;;2.20;94.40;;;;;;4990591;28;19959;-85
2021/01/09 10:00:03;;;;;;;;;;;2.10;94.40;;;;;;4982504;28;19921;-85
2021/01/09 10:02:40;;;;;;;;;;;2.20;94.50;;;;;;4999052;28;19967;-84
2021/01/09 10:05:15;;;;;;;;;;;2.20;94.50;;;;;;4999340;28;19968;-85
2021/01/09 10:07:43;;;;;;;;;;;2.20;94.50;;;;;;4995704;28;19910;-86
2021/01/09 10:10:15;;;;;;;;;;;2.20;94.50;;;;;;4984636;23;19926;-91
2021/01/09 10:12:41;;;;;;;;;;;2.30;94.60;;;;;;4970095;28;19994;-91
2021/01/09 10:15:08;;;;;;;;;;;2.30;94.60;;;;;;4979058;28;19953;-91
2021/01/09 10:17:34;;;;;;;;;;;2.30;94.60;;;;;;4977943;28;20287;-91
2021/01/09 10:19:59;;;;;;;;;;;2.30;94.70;;;;;;4965021;28;20383;-91
2021/01/09 10:22:24;;;;;;;;;;;2.40;94.70;;;;;;4993557;28;19964;-92
2021/01/09 10:24:50;;;;;;;;;;;2.40;94.80;;;;;;4977692;28;19913;-91
2021/01/09 10:27:15;;;;;;;;;;;2.40;94.80;;;;;;5005638;28;19920;-92
2021/01/09 10:29:41;;;;;;;;;;;2.50;94.90;;;;;;4977564;28;19914;-92
2021/01/09 10:32:06;;;;;;;;;;;2.60;95.00;;;;;;4977496;28;19914;-91
2021/01/09 10:34:33;;;;;;;;;;;2.60;95.00;;;;;;4993806;28;19921;-91
2021/01/09 10:36:58;;;;;;;;;;;2.60;95.00;;;;;;4974622;28;19925;-92
2021/01/09 10:39:24;;;;;;;;;;;2.70;94.90;;;;;;4974061;28;19914;-91
2021/01/09 10:41:50;;;;;;;;;;;2.70;95.00;;;;;;4977336;28;20383;-89
2021/01/09 10:44:15;;;;;;;;;;;2.70;94.90;;;;;;4977340;28;19914;-89
2021/01/09 10:46:41;;;;;;;;;;;2.70;94.90;;;;;;5007207;28;19992;-90
2021/01/09 10:49:07;;;;;;;;;;;2.70;94.90;;;;;;4992588;28;19920;-91
2021/01/09 10:51:34;;;;;;;;;;;2.70;94.90;;;;;;4982650;28;20273;-92
2021/01/09 10:54:01;;;;;;;;;;;2.60;94.90;;;;;;4980633;28;20285;-90
2021/01/09 10:56:27;;;;;;;;;;;2.60;94.90;;;;;;4980132;28;20392;-89
2021/01/09 10:58:53;;;;;;;;;;;2.70;95.00;;;;;;4993669;28;20000;-90
2021/01/09 11:01:19;;;;;;;;;;;2.70;95.10;;;;;;4994551;28;19918;-90
2021/01/09 11:03:45;;;;;;;;;;;2.70;95.20;;;;;;4993896;28;19910;-91
2021/01/09 11:06:19;;;;;;;;;;;2.80;95.20;;;;;;4978482;28;19917;-91
2021/01/09 11:08:44;;;;;;;;;;;2.80;95.20;;;;;;4996633;28;19949;-90
2021/01/09 11:11:10;;;;;;;;;;;2.90;95.20;;;;;;4979723;28;19924;-90
2021/01/09 11:13:36;;;;;;;;;;;2.90;95.30;;;;;;4981117;28;19936;-91
2021/01/09 11:16:02;;;;;;;;;;;3.00;95.30;;;;;;4984672;28;19981;-90
2021/01/09 11:18:27;;;;;;;;;;;3.00;95.30;;;;;;5002817;28;20388;-90
2021/01/09 11:20:53;;;;;;;;;;;3.10;95.20;;;;;;4995602;28;19913;-90
2021/01/09 11:23:19;;;;;;;;;;;3.20;95.30;;;;;;4983224;28;20361;-90
2021/01/09 11:25:45;;;;;;;;;;;3.30;95.40;;;;;;4996749;28;19916;-90
2021/01/09 11:28:11;;;;;;;;;;;3.30;95.40;;;;;;5013227;28;19922;-90
2021/01/09 11:30:37;;;;;;;;;;;3.40;95.30;;;;;;4996906;28;19910;-90
2021/01/09 11:33:03;;;;;;;;;;;3.40;95.20;;;;;;4980076;28;19928;-91
2021/01/09 11:35:28;;;;;;;;;;;3.50;95.20;;;;;;4975803;28;19914;-91
2021/01/09 11:37:57;;;;;;;;;;;3.50;95.10;;;;;;4987402;28;19917;-92
2021/01/09 11:40:24;;;;;;;;;;;3.50;95.20;;;;;;4996700;28;20364;-92
2021/01/09 11:42:49;;;;;;;;;;;3.60;95.30;;;;;;4996654;28;20372;-92
2021/01/09 11:45:15;;;;;;;;;;;3.60;95.30;;;;;;4965550;28;19913;-92
2021/01/09 11:47:41;;;;;;;;;;;3.70;95.50;;;;;;4964409;28;19953;-93
2021/01/09 11:50:08;;;;;;;;;;;3.80;95.40;;;;;;4984199;28;20377;-92
2021/01/09 11:52:33;;;;;;;;;;;3.90;95.40;;;;;;4994518;28;19910;-92
2021/01/09 11:54:59;;;;;;;;;;;4.00;95.40;;;;;;4996613;28;19914;-92
2021/01/09 11:57:25;;;;;;;;;;;4.00;95.30;;;;;;4980079;28;19917;-92
2021/01/09 11:59:50;;;;;;;;;;;4.10;95.30;;;;;;4996728;28;19914;-90
2021/01/09 12:02:16;;;;;;;;;;;4.10;95.30;;;;;;4996057;28;20252;-89
2021/01/09 12:04:42;;;;;;;;;;;4.20;95.40;;;;;;4983022;28;19918;-90
2021/01/09 12:07:07;;;;;;;;;;;4.30;95.40;;;;;;4979992;28;20052;-89
2021/01/09 12:09:33;;;;;;;;;;;4.30;95.30;;;;;;4980569;28;19933;-90
2021/01/09 12:11:58;;;;;;;;;;;4.30;95.30;;;;;;4996009;28;19917;-90
2021/01/09 12:17:12;;;;;;;;;;;4.50;95.60;;;;;;4978498;28;20055;-90
2021/01/09 12:22:41;;;;;;;;;;;4.60;95.50;;;;;;5024350;28;19921;-90
2021/01/09 12:25:06;;;;;;;;;;;4.60;95.30;;;;;;4994891;28;19913;-90
2021/01/09 12:27:32;;;;;;;;;;;4.70;95.20;;;;;;5010473;28;19910;-89
2021/01/09 12:29:58;;;;;;;;;;;4.70;95.20;;;;;;4999674;28;19918;-90
2021/01/09 12:32:24;;;;;;;;;;;4.80;95.20;;;;;;4999665;28;20399;-90
2021/01/09 12:34:49;;;;;;;;;;;4.80;95.10;;;;;;4999775;28;19936;-91
2021/01/09 12:37:15;;;;;;;;;;;4.90;95.10;;;;;;4973592;28;20380;-91
2021/01/09 12:39:40;;;;;;;;;;;5.00;95.10;;;;;;5012301;28;19964;-91
2021/01/09 12:42:12;;;;;;;;;;;5.10;95.10;;;;;;4975670;28;20362;-91
2021/01/09 12:44:38;;;;;;;;;;;5.10;95.10;;;;;;4996877;28;19920;-90
2021/01/09 12:47:03;;;;;;;;;;;5.20;95.10;;;;;;5000999;28;19917;-91
2021/01/09 12:49:29;;;;;;;;;;;5.30;95.00;;;;;;5000638;28;19916;-91
2021/01/09 12:52:04;;;;;;;;;;;5.30;94.80;;;;;;4989648;28;19952;-91
2021/01/09 12:54:29;;;;;;;;;;;5.50;94.80;;;;;;5000456;28;19902;-91
2021/01/09 12:56:55;;;;;;;;;;;5.50;94.80;;;;;;4997116;28;19920;-91
2021/01/09 12:59:21;;;;;;;;;;;5.60;94.80;;;;;;4999716;28;19910;-91
2021/01/09 13:01:47;;;;;;;;;;;5.70;94.80;;;;;;4980507;28;19928;-91
2021/01/09 13:04:15;;;;;;;;;;;5.70;94.80;;;;;;4999365;28;19909;-90
2021/01/09 13:06:41;;;;;;;;;;;5.80;95.10;;;;;;5016270;28;19991;-91
2021/01/09 13:09:08;;;;;;;;;;;5.90;94.90;;;;;;4998725;28;19918;-90
2021/01/09 13:11:34;;;;;;;;;;;6.00;95.00;;;;;;4999373;28;20003;-90
2021/01/09 13:13:59;;;;;;;;;;;6.20;95.30;;;;;;5001179;28;19914;-91
2021/01/09 13:16:26;;;;;;;;;;;6.20;94.90;;;;;;4988704;28;20347;-91
2021/01/09 13:18:52;;;;;;;;;;;6.30;95.00;;;;;;5003631;28;19918;-91
2021/01/09 13:21:17;;;;;;;;;;;6.40;94.60;;;;;;4987317;28;19957;-91
2021/01/09 13:23:43;;;;;;;;;;;6.40;94.50;;;;;;5006474;28;19909;-91
2021/01/09 13:26:09;;;;;;;;;;;6.40;94.60;;;;;;5008602;28;19957;-90
2021/01/09 13:28:35;;;;;;;;;;;6.50;94.20;;;;;;5001813;28;19913;-90
2021/01/09 13:31:00;;;;;;;;;;;6.50;94.10;;;;;;4999387;28;19921;-91
2021/01/09 13:33:54;;;;;;;;;;;6.50;94.20;;;;;;5016875;28;19909;-91
2021/01/09 13:36:24;;;;;;;;;;;6.60;94.30;;;;;;5016838;28;19909;-90
2021/01/09 13:38:49;;;;;;;;;;;6.70;94.30;;;;;;4999844;28;19920;-91
2021/01/09 13:41:15;;;;;;;;;;;6.70;94.30;;;;;;4999548;28;20291;-90
2021/01/09 13:43:40;;;;;;;;;;;6.80;94.10;;;;;;5019403;28;20012;-90
2021/01/09 13:46:06;;;;;;;;;;;6.90;94.10;;;;;;4987898;28;20024;-91
2021/01/09 13:48:32;;;;;;;;;;;6.90;94.20;;;;;;4990107;28;19913;-91
2021/01/09 13:50:58;;;;;;;;;;;7.00;93.80;;;;;;5003883;28;20060;-91
2021/01/09 13:53:23;;;;;;;;;;;7.10;93.80;;;;;;5002011;28;20008;-91
2021/01/09 13:55:49;;;;;;;;;;;7.10;93.70;;;;;;5001029;28;19963;-91
2021/01/09 13:58:23;;;;;;;;;;;7.10;93.60;;;;;;4998898;28;19924;-90
2021/01/09 14:00:49;;;;;;;;;;;7.10;93.50;;;;;;4982141;28;19918;-91
2021/01/09 14:03:14;;;;;;;;;;;7.20;93.50;;;;;;4982198;28;19914;-90
2021/01/09 14:05:40;;;;;;;;;;;7.20;93.30;;;;;;4981705;28;19913;-90
2021/01/09 14:08:05;;;;;;;;;;;7.20;93.30;;;;;;4997230;28;19918;-91
2021/01/09 14:10:31;;;;;;;;;;;7.20;93.30;;;;;;4997267;28;19925;-90
2021/01/09 14:12:58;;;;;;;;;;;7.20;93.10;;;;;;4997649;28;19921;-90
2021/01/09 14:15:24;;;;;;;;;;;7.20;93.10;;;;;;4981256;28;19914;-90
2021/01/09 14:17:49;;;;;;;;;;;7.20;93.20;;;;;;4997354;28;19918;-90
2021/01/09 14:20:36;;;;;;;;;;;7.10;93.10;;;;;;4978874;28;20332;-90
2021/01/09 14:23:02;;;;;;;;;;;7.10;93.10;;;;;;4988116;28;20323;-90
2021/01/09 14:25:27;;;;;;;;;;;7.10;93.10;;;;;;5013529;28;19921;-91
2021/01/09 14:27:53;;;;;;;;;;;7.10;93.00;;;;;;4981076;28;20371;-90
2021/01/09 14:30:19;;;;;;;;;;;7.10;92.80;;;;;;4981928;28;20008;-90
2021/01/09 14:32:44;;;;;;;;;;;7.10;92.90;;;;;;4980932;28;19972;-90
2021/01/09 14:35:10;;;;;;;;;;;7.10;93.00;;;;;;4996905;28;19925;-90
2021/01/09 14:37:36;;;;;;;;;;;7.10;93.10;;;;;;5013550;28;19952;-90
2021/01/09 14:40:02;;;;;;;;;;;7.10;93.10;;;;;;4996993;28;19917;-90
2021/01/09 14:42:27;;;;;;;;;;;7.10;92.80;;;;;;4977410;28;19922;-90